Time;durP1;ratioP1;P1;durP2;ratioP2;P2;SDS_P1;SDS_P2;PMS_P1;PMS_P2;Temp;Humidity;BMP_temperature;BMP_pressure;BME280_temperature;BME280_humidity;BME280_pressure;Samples;Min_cycle;Max_cycle;Signal;HPM_P1;HPM_P2
2021/11/16 00:00:08;;;;;;;3.40;3.10;;;;;;;1.22;61.47;102605.34;1700285;83;21053;-58
2021/11/16 00:02:40;;;;;;;4.90;4.40;;;;;;;1.27;61.36;102605.99;1716736;83;21068;-58
2021/11/16 00:05:09;;;;;;;4.87;4.27;;;;;;;1.31;61.07;102610.17;1670806;85;21022;-57
2021/11/16 00:07:36;;;;;;;5.97;5.37;;;;;;;1.31;61.11;102613.27;1692862;84;21621;-59
2021/11/16 00:10:04;;;;;;;7.60;6.90;;;;;;;1.34;61.11;102610.52;1719217;83;21513;-59
2021/11/16 00:12:31;;;;;;;5.87;5.30;;;;;;;1.31;61.07;102612.80;1712539;82;21078;-60
2021/11/16 00:14:57;;;;;;;;;;;;;;;1.33;61.19;102613.58;1714435;83;21027;-59
2021/11/16 00:17:23;;;;;;;5.50;4.60;;;;;;;1.33;61.20;102613.58;1719143;83;20142;-60
2021/11/16 00:19:51;;;;;;;7.73;5.87;;;;;;;1.33;61.18;102612.73;1715929;83;21017;-60
2021/11/16 00:22:19;;;;;;;5.15;4.37;;;;;;;1.36;61.40;102610.81;1712944;83;21067;-58
2021/11/16 00:25:07;;;;;;;5.70;4.83;;;;;;;1.42;61.20;102614.09;1714673;83;21503;-59
2021/11/16 00:27:25;;;;;;;8.30;5.30;;;;;;;1.42;60.99;102615.41;1712708;83;21091;-59
2021/11/16 00:29:51;;;;;;;7.83;6.60;;;;;;;1.44;61.04;102620.12;1715829;83;20925;-58
2021/11/16 00:32:18;;;;;;;13.10;8.25;;;;;;;1.41;60.87;102611.05;1717361;83;21048;-58
2021/11/16 00:34:44;;;;;;;7.70;6.97;;;;;;;1.40;60.84;102610.69;1674993;83;21046;-58
2021/11/16 00:37:10;;;;;;;8.35;7.40;;;;;;;1.34;61.14;102605.25;1676252;84;21121;-57
2021/11/16 00:39:36;;;;;;;8.60;7.50;;;;;;;1.36;61.08;102603.41;1684112;84;21549;-62
2021/11/16 00:42:03;;;;;;;12.30;6.15;;;;;;;1.31;61.03;102607.55;1674537;84;21440;-60
2021/11/16 00:44:29;;;;;;;7.20;6.35;;;;;;;1.29;61.05;102596.27;1680126;83;21139;-60
2021/11/16 00:46:55;;;;;;;5.33;4.92;;;;;;;1.26;61.31;102596.42;1694598;83;21051;-58
2021/11/16 00:49:21;;;;;;;5.03;4.53;;;;;;;1.25;61.58;102597.33;1716351;83;20983;-58
2021/11/16 00:51:48;;;;;;;5.22;4.45;;;;;;;1.26;61.54;102591.17;1665278;85;21120;-59
2021/11/16 00:54:14;;;;;;;5.05;4.60;;;;;;;1.27;61.67;102597.27;1693707;83;20948;-59
2021/11/16 00:56:40;;;;;;;4.12;3.67;;;;;;;1.28;61.54;102601.58;1693885;82;21471;-58
2021/11/16 00:59:07;;;;;;;6.97;5.50;;;;;;;1.27;61.51;102598.58;1703689;83;21062;-61
2021/11/16 01:01:34;;;;;;;4.43;4.03;;;;;;;1.32;61.44;102603.17;1694038;82;21554;-59
2021/11/16 01:04:01;;;;;;;5.08;4.67;;;;;;;1.32;61.43;102605.33;1706200;83;21605;-58
2021/11/16 01:06:28;;;;;;;5.22;4.72;;;;;;;1.27;61.28;102596.80;1664601;85;21092;-60
2021/11/16 01:08:55;;;;;;;4.83;4.47;;;;;;;1.18;61.51;102599.85;1705140;83;20951;-58
2021/11/16 01:11:21;;;;;;;5.87;5.27;;;;;;;1.17;61.70;102592.91;1664972;83;21151;-58
2021/11/16 01:13:47;;;;;;;6.05;5.40;;;;;;;1.12;61.93;102592.27;1704151;83;21031;-58
2021/11/16 01:16:14;;;;;;;5.75;5.15;;;;;;;1.12;61.98;102595.73;1693550;83;21056;-59
2021/11/16 01:18:41;;;;;;;4.60;4.20;;;;;;;1.12;61.86;102586.54;1706242;83;21034;-59
2021/11/16 01:21:08;;;;;;;5.55;5.05;;;;;;;1.15;61.57;102585.09;1663229;85;21024;-58
2021/11/16 01:23:35;;;;;;;4.73;4.33;;;;;;;1.16;61.62;102587.25;1691223;83;21071;-57
2021/11/16 01:26:02;;;;;;;5.03;4.62;;;;;;;1.16;61.45;102579.37;1703952;83;21014;-57
2021/11/16 01:29:38;;;;;;;4.77;4.27;;;;;;;1.24;61.20;102580.33;1785110;78;22753;-60
2021/11/16 01:32:13;;;;;;;4.43;4.13;;;;;;;1.20;61.04;102584.02;1738605;81;20983;-58
2021/11/16 01:34:34;;;;;;;8.70;5.07;;;;;;;1.19;61.10;102575.30;1738637;80;21469;-59
2021/11/16 01:37:01;;;;;;;4.65;4.20;;;;;;;1.19;61.11;102583.62;1752866;80;21556;-56
2021/11/16 01:39:28;;;;;;;6.50;5.83;;;;;;;1.21;61.17;102590.52;1740457;80;21065;-57
2021/11/16 01:41:54;;;;;;;6.03;5.47;;;;;;;1.19;61.16;102584.49;1737549;81;20986;-58
2021/11/16 01:44:21;;;;;;;6.62;6.20;;;;;;;1.13;61.17;102585.63;1743968;80;21027;-58
2021/11/16 01:46:47;;;;;;;6.50;5.87;;;;;;;1.15;61.20;102580.31;1692954;83;21514;-57
2021/11/16 01:49:13;;;;;;;7.22;6.53;;;;;;;1.13;61.22;102583.45;1689794;83;21600;-57
2021/11/16 01:51:40;;;;;;;6.87;5.90;;;;;;;1.12;61.23;102581.76;1684925;83;21086;-59
2021/11/16 01:54:06;;;;;;;8.88;6.67;;;;;;;1.11;61.47;102581.36;1698255;83;21042;-58
2021/11/16 01:56:39;;;;;;;;;;;;;;;1.10;61.62;102582.30;1691062;84;21065;-57
2021/11/16 01:59:08;;;;;;;8.50;6.00;;;;;;;1.11;61.60;102590.11;1670388;83;20135;-57
2021/11/16 02:01:37;;;;;;;8.40;7.43;;;;;;;1.08;61.80;102585.45;1678733;83;21550;-60
2021/11/16 02:04:05;;;;;;;10.00;7.23;;;;;;;1.08;61.79;102579.73;1650398;85;21006;-58
2021/11/16 02:06:36;;;;;;;8.53;7.30;;;;;;;1.07;61.74;102574.55;1649795;85;21492;-56
2021/11/16 02:09:07;;;;;;;9.53;7.30;;;;;;;1.05;61.37;102575.92;1643780;85;21528;-57
2021/11/16 02:11:35;;;;;;;8.10;5.80;;;;;;;0.99;61.16;102578.84;1642278;86;21192;-58
2021/11/16 02:14:03;;;;;;;8.80;6.67;;;;;;;0.93;61.23;102578.67;1654732;85;21026;-57
2021/11/16 02:16:32;;;;;;;7.33;6.67;;;;;;;0.92;61.36;102566.91;1654336;85;21364;-58
2021/11/16 02:18:59;;;;;;;7.07;6.33;;;;;;;0.85;61.34;102575.55;1633571;86;21017;-57
2021/11/16 02:21:26;;;;;;;6.47;5.87;;;;;;;0.84;61.32;102558.08;1664721;85;21513;-57
2021/11/16 02:23:52;;;;;;;8.33;7.53;;;;;;;0.78;61.50;102564.94;1667298;85;21094;-58
2021/11/16 02:26:18;;;;;;;6.17;5.67;;;;;;;0.75;61.55;102558.06;1654183;85;21060;-58
2021/11/16 02:28:47;;;;;;;6.53;5.92;;;;;;;0.76;61.43;102558.44;1640750;85;21089;-59
2021/11/16 02:31:14;;;;;;;6.63;6.10;;;;;;;0.80;61.27;102555.21;1643076;85;21608;-58
2021/11/16 02:33:41;;;;;;;6.87;6.37;;;;;;;0.77;61.00;102548.78;1647619;85;21061;-58
2021/11/16 02:36:08;;;;;;;6.40;5.90;;;;;;;0.76;61.00;102544.47;1650908;85;21041;-57
2021/11/16 02:38:36;;;;;;;7.03;6.43;;;;;;;0.74;61.05;102543.69;1653206;85;21077;-61
2021/11/16 02:41:04;;;;;;;5.83;5.37;;;;;;;0.77;60.91;102536.96;1651761;85;21097;-58
2021/11/16 02:43:34;;;;;;;6.20;5.70;;;;;;;0.80;60.81;102537.30;1645321;86;21149;-57
2021/11/16 02:46:02;;;;;;;5.50;5.00;;;;;;;0.78;60.61;102530.80;1638222;86;21014;-58
2021/11/16 02:48:31;;;;;;;5.53;5.13;;;;;;;0.80;60.60;102530.74;1642963;84;21118;-57
2021/11/16 02:51:01;;;;;;;6.33;5.80;;;;;;;0.78;60.64;102525.09;1662839;84;21146;-59
2021/11/16 02:53:28;;;;;;;5.73;5.30;;;;;;;0.75;60.68;102521.75;1640301;85;21053;-58
2021/11/16 02:55:55;;;;;;;7.03;6.37;;;;;;;0.68;60.97;102515.07;1648556;85;21021;-59
2021/11/16 02:58:24;;;;;;;5.65;5.25;;;;;;;0.70;60.84;102519.34;1627149;87;21067;-58
2021/11/16 03:00:55;;;;;;;5.50;5.00;;;;;;;0.69;60.94;102520.73;1633727;85;21057;-61
2021/11/16 03:03:22;;;;;;;6.47;5.97;;;;;;;0.70;60.99;102525.91;1662607;85;21605;-58
2021/11/16 03:05:49;;;;;;;;;;;;;;;0.67;61.00;102537.01;1648434;85;21549;-58
2021/11/16 03:08:24;;;;;;;7.37;6.87;;;;;;;0.71;61.12;102522.81;1661319;85;20173;-60
2021/11/16 03:10:59;;;;;;;7.60;7.00;;;;;;;0.66;61.22;102526.98;1644198;85;21072;-57
2021/11/16 03:13:29;;;;;;;10.57;7.77;;;;;;;0.65;61.38;102529.67;1646668;85;21019;-57
2021/11/16 03:15:56;;;;;;;8.17;6.60;;;;;;;0.70;61.34;102529.00;1617761;86;21026;-58
2021/11/16 03:18:22;;;;;;;8.43;7.63;;;;;;;0.71;61.33;102529.38;1623587;87;21131;-58
2021/11/16 03:20:50;;;;;;;7.00;6.45;;;;;;;0.68;61.30;102529.51;1654600;85;21112;-58
2021/11/16 03:23:19;;;;;;;7.50;6.80;;;;;;;0.70;61.25;102517.19;1647843;85;21630;-59
2021/11/16 03:26:01;;;;;;;7.07;6.57;;;;;;;0.72;61.26;102513.56;1626506;87;21093;-56
2021/11/16 03:28:21;;;;;;;6.53;6.03;;;;;;;0.73;61.26;102522.28;1635322;86;21597;-59
2021/11/16 03:30:51;;;;;;;6.23;5.67;;;;;;;0.71;61.39;102514.94;1651026;85;21079;-58
2021/11/16 03:33:21;;;;;;;6.77;6.17;;;;;;;0.74;61.16;102513.50;1650908;85;21063;-58
2021/11/16 03:35:51;;;;;;;6.37;5.93;;;;;;;0.77;61.20;102513.34;1644822;86;20994;-60
2021/11/16 03:38:20;;;;;;;5.77;5.27;;;;;;;0.81;61.10;102509.67;1682864;84;21023;-60
2021/11/16 03:40:51;;;;;;;6.37;5.77;;;;;;;0.81;61.03;102505.73;1681383;84;21042;-59
2021/11/16 03:43:18;;;;;;;6.73;5.07;;;;;;;0.80;60.91;102496.61;1682744;84;21003;-58
2021/11/16 03:45:44;;;;;;;5.90;5.40;;;;;;;0.79;61.08;102503.61;1679848;84;20990;-58
2021/11/16 03:48:11;;;;;;;6.65;6.10;;;;;;;0.77;61.15;102499.77;1678482;84;21015;-57
2021/11/16 03:50:40;;;;;;;;;;;;;;;0.76;60.99;102497.21;1676522;84;21573;-57
2021/11/16 03:53:06;;;;;;;6.40;5.83;;;;;;;0.72;61.00;102506.16;1676251;84;20135;-63
2021/11/16 03:55:37;;;;;;;7.13;6.47;;;;;;;0.65;61.36;102504.73;1673725;84;21128;-59
2021/11/16 03:58:05;;;;;;;6.93;6.23;;;;;;;0.61;61.54;102504.02;1675170;84;21065;-58
2021/11/16 04:00:37;;;;;;;6.47;5.93;;;;;;;0.63;61.69;102505.27;1681635;83;21094;-58
2021/11/16 04:03:05;;;;;;;7.17;6.47;;;;;;;0.64;61.60;102506.95;1687081;84;21007;-57
2021/11/16 04:05:32;;;;;;;7.10;6.40;;;;;;;0.65;61.40;102498.17;1691251;84;21110;-58
2021/11/16 04:07:58;;;;;;;6.00;5.50;;;;;;;0.65;61.53;102496.86;1683972;84;20991;-59
2021/11/16 04:10:26;;;;;;;8.53;6.58;;;;;;;0.64;61.54;102486.83;1691954;84;21101;-60
2021/11/16 04:12:56;;;;;;;6.33;5.73;;;;;;;0.65;61.43;102488.52;1726495;81;20987;-59
2021/11/16 04:15:26;;;;;;;6.20;5.57;;;;;;;0.67;61.37;102490.61;1729062;81;21038;-59
2021/11/16 04:17:54;;;;;;;6.97;6.37;;;;;;;0.63;61.13;102492.14;1745412;81;21537;-59
2021/11/16 04:20:26;;;;;;;6.53;5.90;;;;;;;0.61;61.34;102488.27;1723636;81;21011;-59
2021/11/16 04:22:54;;;;;;;7.13;6.43;;;;;;;0.60;61.45;102487.02;1735247;81;21066;-58
2021/11/16 04:25:20;;;;;;;6.20;5.70;;;;;;;0.60;61.57;102481.30;1726128;81;21474;-59
2021/11/16 04:27:49;;;;;;;7.33;6.73;;;;;;;0.64;61.61;102488.58;1728238;81;21136;-63
2021/11/16 04:30:20;;;;;;;6.63;6.03;;;;;;;0.66;61.58;102490.23;1733817;81;21085;-59
2021/11/16 04:32:47;;;;;;;7.73;6.93;;;;;;;0.65;61.61;102488.98;1732449;81;20999;-58
2021/11/16 04:35:15;;;;;;;6.85;6.25;;;;;;;0.64;61.61;102490.77;1693695;81;21050;-60
2021/11/16 04:37:45;;;;;;;7.60;7.00;;;;;;;0.61;61.68;102493.52;1701236;82;21054;-60
2021/11/16 04:40:16;;;;;;;7.00;6.40;;;;;;;0.62;61.61;102496.52;1687508;82;21034;-60
2021/11/16 04:42:43;;;;;;;6.77;6.23;;;;;;;0.60;61.67;102501.46;1705913;82;21466;-61
2021/11/16 04:45:17;;;;;;;6.90;6.10;;;;;;;0.62;61.53;102510.11;1672569;83;21218;-59
2021/11/16 05:03:50;;;;;;;7.40;6.80;;;;;;;0.60;61.70;102501.46;1703587;82;21090;-60
2021/11/16 05:06:17;;;;;;;7.17;6.67;;;;;;;0.60;61.82;102502.77;1705009;82;21031;-61
2021/11/16 05:08:47;;;;;;;7.47;6.77;;;;;;;0.60;61.74;102498.84;1708868;82;21141;-59
2021/11/16 05:11:15;;;;;;;7.20;6.60;;;;;;;0.62;61.59;102500.45;1711885;82;21015;-60
2021/11/16 05:13:43;;;;;;;8.33;7.53;;;;;;;0.61;61.73;102497.45;1733425;81;21062;-58
2021/11/16 05:16:12;;;;;;;7.53;6.73;;;;;;;0.63;61.44;102500.02;1727951;81;21620;-59
2021/11/16 05:18:40;;;;;;;9.33;8.33;;;;;;;0.62;61.62;102499.61;1735876;81;21227;-63
2021/11/16 05:21:10;;;;;;;10.93;8.50;;;;;;;0.66;61.60;102500.73;1729562;81;21126;-63
2021/11/16 05:23:43;;;;;;;9.17;7.83;;;;;;;0.66;61.56;102498.11;1710664;81;21050;-58
2021/11/16 05:26:05;;;;;;;8.30;7.50;;;;;;;0.63;61.54;102502.64;1696057;82;21649;-59
2021/11/16 05:28:32;;;;;;;7.22;5.72;;;;;;;0.60;61.52;102504.09;1709041;82;21494;-60
2021/11/16 05:30:59;;;;;;;7.50;6.72;;;;;;;0.53;61.57;102512.25;1708136;82;20998;-59
2021/11/16 05:33:27;;;;;;;7.37;6.60;;;;;;;0.51;61.65;102502.28;1692110;82;21022;-59
2021/11/16 05:36:01;;;;;;;7.90;7.20;;;;;;;0.47;61.84;102512.53;1707342;82;21023;-60
2021/11/16 05:38:31;;;;;;;9.97;8.23;;;;;;;0.48;62.02;102502.88;1704685;83;21017;-59
2021/11/16 05:40:59;;;;;;;8.80;7.87;;;;;;;0.52;62.13;102510.53;1703058;82;21038;-61
2021/11/16 05:43:26;;;;;;;10.67;8.37;;;;;;;0.54;62.09;102516.55;1682352;83;21087;-62
2021/11/16 05:45:53;;;;;;;8.03;7.23;;;;;;;0.58;62.01;102512.90;1680203;83;21060;-62
2021/11/16 05:48:22;;;;;;;16.27;9.63;;;;;;;0.58;61.66;102503.71;1682697;84;21053;-58
2021/11/16 05:50:49;;;;;;;10.30;8.13;;;;;;;0.62;61.55;102504.39;1672295;84;21041;-59
2021/11/16 05:53:16;;;;;;;8.83;8.00;;;;;;;0.62;61.50;102496.98;1672448;84;21101;-61
2021/11/16 05:55:47;;;;;;;8.98;7.92;;;;;;;0.62;61.52;102503.55;1672780;84;20971;-59
2021/11/16 05:58:15;;;;;;;10.13;7.43;;;;;;;0.62;61.66;102504.86;1669738;84;21615;-58
2021/11/16 06:00:42;;;;;;;9.53;8.63;;;;;;;0.62;61.78;102516.20;1657090;84;21011;-59
2021/11/16 06:03:08;;;;;;;9.30;8.33;;;;;;;0.66;62.09;102516.92;1677551;84;20979;-61
2021/11/16 06:05:37;;;;;;;11.27;9.13;;;;;;;0.66;62.09;102516.92;1678053;84;21026;-63
2021/11/16 06:08:06;;;;;;;8.80;7.87;;;;;;;0.66;61.82;102517.80;1668764;84;21090;-62
2021/11/16 06:10:33;;;;;;;10.63;9.43;;;;;;;0.69;61.79;102522.03;1675912;84;21031;-61
2021/11/16 06:13:00;;;;;;;9.37;8.50;;;;;;;0.71;61.60;102521.50;1668204;84;21089;-63
2021/11/16 06:15:27;;;;;;;9.80;8.80;;;;;;;0.73;61.63;102522.28;1674844;84;21818;-59
2021/11/16 06:17:53;;;;;;;11.40;9.03;;;;;;;0.77;61.64;102526.46;1624887;86;21126;-61
2021/11/16 06:20:21;;;;;;;9.85;8.85;;;;;;;0.82;61.44;102527.58;1633837;86;21054;-62
2021/11/16 06:22:48;;;;;;;11.33;8.57;;;;;;;0.84;60.95;102523.95;1704638;83;21034;-62
2021/11/16 06:25:16;;;;;;;9.30;8.40;;;;;;;0.81;60.91;102532.42;1718244;82;21055;-63
2021/11/16 06:27:42;;;;;;;10.60;8.77;;;;;;;0.80;61.05;102533.37;1710153;82;21564;-62
2021/11/16 06:30:10;;;;;;;9.03;8.10;;;;;;;0.78;61.14;102528.18;1710826;82;21529;-63
2021/11/16 06:32:37;;;;;;;11.33;10.10;;;;;;;0.80;61.29;102526.33;1722601;82;21014;-68
2021/11/16 06:35:04;;;;;;;10.82;9.05;;;;;;;0.80;61.15;102521.08;1718398;82;21570;-62
2021/11/16 06:37:31;;;;;;;10.43;8.13;;;;;;;0.83;61.22;102522.27;1713780;82;21167;-64
2021/11/16 06:39:57;;;;;;;8.55;7.75;;;;;;;0.77;61.21;102519.46;1711409;82;21117;-65
2021/11/16 06:42:24;;;;;;;8.80;7.85;;;;;;;0.71;61.26;102513.63;1668228;85;21110;-66
2021/11/16 06:44:50;;;;;;;7.72;6.97;;;;;;;0.73;61.43;102520.97;1671695;84;21614;-66
2021/11/16 06:47:16;;;;;;;11.55;9.45;;;;;;;0.75;61.33;102513.88;1687600;84;21009;-68
2021/11/16 06:49:50;;;;;;;9.25;8.20;;;;;;;0.77;61.40;102523.84;1659844;85;21015;-66
2021/11/16 06:52:19;;;;;;;10.77;8.93;;;;;;;0.78;61.20;102521.62;1718417;82;22532;-68
2021/11/16 06:54:46;;;;;;;8.67;7.80;;;;;;;0.79;61.17;102521.98;1714564;82;21031;-65
2021/11/16 06:57:12;;;;;;;10.87;8.20;;;;;;;0.79;61.13;102516.73;1714414;82;21046;-63
2021/11/16 06:59:42;;;;;;;8.20;7.40;;;;;;;0.82;61.05;102518.39;1711376;81;21098;-62
2021/11/16 07:02:09;;;;;;;9.43;8.53;;;;;;;0.73;61.21;102517.87;1722461;82;21071;-63
2021/11/16 07:04:40;;;;;;;;;;;;;;;0.75;61.42;102509.94;1718975;82;21133;-60
2021/11/16 07:07:07;;;;;;;6.90;6.20;;;;;;;0.75;61.33;102517.81;1699217;82;20166;-62
2021/11/16 07:09:39;;;;;;;11.57;8.23;;;;;;;0.63;61.79;102507.89;1705838;82;21007;-63
2021/11/16 07:12:15;;;;;;;10.30;7.13;;;;;;;0.71;61.90;102516.25;1700406;81;21032;-63
2021/11/16 07:14:41;;;;;;;13.70;9.53;;;;;;;0.77;61.62;102514.65;1662077;84;21047;-61
2021/11/16 07:17:14;;;;;;;11.30;9.63;;;;;;;0.86;61.52;102518.63;1650015;84;21028;-62
2021/11/16 07:19:55;;;;;;;10.80;9.70;;;;;;;0.90;61.48;102518.41;1667613;84;21071;-63
2021/11/16 07:22:27;;;;;;;10.57;8.60;;;;;;;0.97;61.15;102510.63;1664751;84;21052;-61
2021/11/16 07:25:03;;;;;;;11.20;8.87;;;;;;;1.05;60.91;102510.73;1725192;81;22647;-61
2021/11/16 07:27:47;;;;;;;14.73;8.77;;;;;;;1.08;60.48;102514.54;1729446;81;21101;-61
2021/11/16 07:30:18;;;;;;;11.03;8.63;;;;;;;1.13;60.58;102505.52;1717904;81;21247;-63
2021/11/16 07:32:55;;;;;;;13.27;9.17;;;;;;;1.11;60.15;102497.30;1724190;81;21578;-61
2021/11/16 07:35:32;;;;;;;8.33;7.45;;;;;;;1.07;59.75;102501.00;1719215;81;20990;-62
2021/11/16 07:38:04;;;;;;;11.83;8.23;;;;;;;0.98;60.00;102502.31;1668721;84;21102;-61
2021/11/16 07:40:33;;;;;;;8.47;7.67;;;;;;;0.85;60.52;102504.66;1682463;83;21086;-61
2021/11/16 07:43:08;;;;;;;13.80;9.80;;;;;;;0.87;60.60;102500.19;1683192;83;21519;-62
2021/11/16 07:45:43;;;;;;;8.77;7.97;;;;;;;0.90;60.77;102497.86;1674705;83;21523;-63
2021/11/16 07:48:14;;;;;;;10.33;8.10;;;;;;;1.02;60.83;102485.92;1720852;82;21115;-62
2021/11/16 07:50:57;;;;;;;9.60;7.60;;;;;;;1.16;60.66;102486.96;1715285;82;21094;-64
2021/11/16 07:53:34;;;;;;;9.87;8.00;;;;;;;1.34;60.24;102482.59;1678035;84;21126;-64
2021/11/16 07:56:06;;;;;;;11.35;7.85;;;;;;;1.50;59.64;102493.66;1647016;84;21058;-65
2021/11/16 07:58:48;;;;;;;8.27;7.43;;;;;;;1.31;59.24;102446.42;1651495;84;21078;-68
2021/11/16 08:02:13;;;;;;;8.07;7.13;;;;;;;1.57;58.60;102491.12;1688511;82;21030;-63
2021/11/16 08:03:53;;;;;;;11.63;8.63;;;;;;;1.65;58.88;102481.52;1683456;82;21624;-64
2021/11/16 08:06:32;;;;;;;7.70;6.80;;;;;;;1.67;58.77;102479.20;1707112;82;21007;-62
2021/11/16 08:09:17;;;;;;;11.20;9.00;;;;;;;1.75;58.51;102472.23;1696425;82;21078;-62
2021/11/16 08:11:44;;;;;;;9.07;7.63;;;;;;;1.74;58.28;102477.96;1715047;82;21429;-64
2021/11/16 08:14:15;;;;;;;11.73;8.37;;;;;;;1.74;58.46;102479.75;1732042;81;21474;-63
2021/11/16 08:16:57;;;;;;;9.03;8.00;;;;;;;1.77;58.70;102476.09;1733763;81;21023;-64
2021/11/16 08:19:31;;;;;;;8.97;8.10;;;;;;;1.84;58.31;102477.49;1733277;81;21030;-61
2021/11/16 08:22:07;;;;;;;9.03;7.20;;;;;;;1.83;58.04;102477.97;1728964;81;21102;-64
2021/11/16 08:24:37;;;;;;;7.22;6.53;;;;;;;1.84;57.74;102474.86;1730062;81;21011;-61
2021/11/16 08:27:12;;;;;;;7.87;7.07;;;;;;;1.76;57.95;102470.00;1736351;81;21051;-63
2021/11/16 08:29:43;;;;;;;7.43;6.77;;;;;;;1.77;57.81;102473.00;1731086;81;21558;-62
2021/11/16 08:32:22;;;;;;;7.87;7.07;;;;;;;1.69;57.83;102473.39;1731156;81;20987;-64
2021/11/16 08:34:53;;;;;;;7.30;6.45;;;;;;;1.72;58.14;102470.62;1726491;81;21105;-63
2021/11/16 08:37:29;;;;;;;7.67;7.03;;;;;;;1.70;58.06;102461.96;1732749;81;21094;-61
2021/11/16 08:40:00;;;;;;;7.40;6.63;;;;;;;1.70;58.30;102465.91;1725137;81;21086;-63
2021/11/16 08:42:36;;;;;;;9.53;7.37;;;;;;;1.77;58.55;102464.27;1727047;81;21078;-64
2021/11/16 08:45:13;;;;;;;8.43;7.57;;;;;;;1.88;58.17;102451.41;1731856;81;20995;-63
2021/11/16 08:47:49;;;;;;;7.33;6.62;;;;;;;1.91;57.54;102452.11;1741501;81;21141;-64
2021/11/16 08:50:32;;;;;;;7.87;6.93;;;;;;;1.93;57.37;102459.92;1725025;81;21453;-63
2021/11/16 08:53:03;;;;;;;9.93;7.93;;;;;;;1.82;57.60;102453.05;1733741;81;21083;-61
2021/11/16 08:55:33;;;;;;;9.17;7.33;;;;;;;1.73;58.00;102451.30;1737701;81;21026;-62
2021/11/16 08:58:02;;;;;;;9.73;7.90;;;;;;;1.71;58.22;102449.66;1729812;81;21011;-64
2021/11/16 09:00:36;;;;;;;8.40;7.57;;;;;;;1.78;58.38;102439.22;1732410;81;21074;-61
2021/11/16 09:03:07;;;;;;;8.37;7.33;;;;;;;1.90;58.21;102439.03;1739907;81;21070;-62
2021/11/16 09:05:41;;;;;;;7.20;6.50;;;;;;;1.87;57.57;102445.31;1729927;81;21058;-64
2021/11/16 09:08:19;;;;;;;8.23;7.50;;;;;;;1.88;57.81;102440.89;1730535;81;20995;-62
2021/11/16 09:10:49;;;;;;;7.20;6.53;;;;;;;1.74;57.84;102441.15;1736737;81;21031;-63
2021/11/16 09:13:19;;;;;;;8.10;7.30;;;;;;;1.65;58.17;102441.62;1723437;81;21018;-61
2021/11/16 09:15:49;;;;;;;8.87;7.97;;;;;;;1.63;58.32;102442.64;1742084;81;21510;-61
2021/11/16 09:18:28;;;;;;;10.13;8.70;;;;;;;1.68;58.25;102438.84;1736663;81;21014;-60
2021/11/16 09:21:02;;;;;;;9.27;8.37;;;;;;;1.68;58.28;102429.64;1731959;81;20960;-63
2021/11/16 09:23:41;;;;;;;9.00;8.17;;;;;;;1.78;58.28;102427.86;1727972;81;21624;-64
2021/11/16 09:28:56;;;;;;;11.47;9.33;;;;;;;1.83;57.88;102417.92;1720223;81;20967;-61
2021/11/16 09:31:35;;;;;;;10.23;9.23;;;;;;;1.83;57.87;102412.66;1724955;81;21084;-64
2021/11/16 09:34:07;;;;;;;11.10;9.23;;;;;;;1.87;58.05;102409.81;1703231;81;20989;-61
2021/11/16 09:36:37;;;;;;;10.30;9.20;;;;;;;1.96;57.99;102403.23;1612071;86;20993;-63
2021/11/16 09:39:11;;;;;;;11.17;9.30;;;;;;;2.05;57.96;102397.45;1616303;86;21522;-63
2021/11/16 09:41:46;;;;;;;13.27;9.83;;;;;;;2.09;57.42;102395.06;1617899;86;21561;-61
2021/11/16 09:44:24;;;;;;;10.50;9.43;;;;;;;2.11;57.59;102389.69;1662336;84;21682;-63
2021/11/16 09:47:02;;;;;;;10.03;9.03;;;;;;;2.12;57.53;102381.72;1661957;84;21104;-62
2021/11/16 09:49:36;;;;;;;12.47;9.80;;;;;;;2.11;57.41;102390.56;1657834;84;21025;-61
2021/11/16 09:52:14;;;;;;;12.33;11.03;;;;;;;2.11;57.33;102381.35;1664738;84;21115;-63
2021/11/16 09:55:01;;;;;;;13.20;10.93;;;;;;;2.15;57.32;102385.98;1668353;84;21111;-62
2021/11/16 09:57:51;;;;;;;11.77;10.03;;;;;;;2.19;57.13;102386.20;1709766;82;21034;-62
2021/11/16 10:00:28;;;;;;;11.07;9.43;;;;;;;2.18;57.34;102379.70;1710582;82;21071;-60
2021/11/16 10:03:05;;;;;;;12.53;10.40;;;;;;;2.25;57.43;102377.12;1684934;84;21007;-61
2021/11/16 10:05:42;;;;;;;14.85;9.98;;;;;;;2.36;57.44;102373.43;1679529;84;21565;-60
2021/11/16 10:08:11;;;;;;;12.50;9.57;;;;;;;2.43;56.71;102370.84;1683974;84;21014;-62
2021/11/16 10:10:41;;;;;;;10.47;8.70;;;;;;;2.49;56.61;102370.97;1675833;84;20979;-60
2021/11/16 10:13:15;;;;;;;11.37;9.63;;;;;;;2.55;56.59;102366.67;1701809;82;21007;-63
2021/11/16 10:15:46;;;;;;;10.87;9.90;;;;;;;2.63;56.37;102367.07;1689467;82;21126;-61
2021/11/16 10:18:16;;;;;;;10.90;9.77;;;;;;;2.73;56.23;102367.39;1698035;82;21030;-63
2021/11/16 10:20:45;;;;;;;11.07;10.10;;;;;;;2.81;55.55;102363.88;1717902;82;21022;-67
2021/11/16 10:23:32;;;;;;;10.90;8.97;;;;;;;2.84;55.65;102358.41;1682948;82;21089;-61
2021/11/16 10:25:59;;;;;;;11.57;9.80;;;;;;;2.89;55.60;102352.42;1666448;84;21023;-59
2021/11/16 10:28:27;;;;;;;10.33;9.30;;;;;;;2.88;55.49;102344.59;1672228;84;21550;-63
2021/11/16 10:31:01;;;;;;;10.53;9.43;;;;;;;2.93;55.41;102348.66;1649697;84;21087;-62
2021/11/16 10:33:38;;;;;;;15.20;10.87;;;;;;;2.94;55.02;102345.58;1672524;83;21019;-62
2021/11/16 10:36:08;;;;;;;13.73;10.13;;;;;;;2.79;54.55;102331.52;1680043;84;21535;-59
2021/11/16 10:38:46;;;;;;;13.77;10.03;;;;;;;2.68;54.79;102336.55;1672225;84;21402;-61
2021/11/16 10:41:25;;;;;;;10.50;9.40;;;;;;;2.57;55.26;102335.00;1669009;84;21038;-63
2021/11/16 10:43:56;;;;;;;15.00;11.23;;;;;;;2.50;55.45;102328.73;1675618;85;21059;-61
2021/11/16 10:46:28;;;;;;;12.27;11.00;;;;;;;2.51;55.73;102317.77;1669294;83;21523;-63
2021/11/16 10:48:58;;;;;;;14.23;9.90;;;;;;;2.47;55.86;102310.50;1658102;84;21542;-62
2021/11/16 10:51:34;;;;;;;13.27;10.97;;;;;;;2.52;56.01;102311.55;1662014;84;21028;-63
2021/11/16 10:54:03;;;;;;;14.23;11.25;;;;;;;2.52;55.69;102308.47;1695852;84;21036;-62
2021/11/16 10:56:34;;;;;;;13.27;10.60;;;;;;;2.46;55.88;102306.64;1698058;83;21156;-64
2021/11/16 10:59:13;;;;;;;11.33;10.13;;;;;;;2.48;55.90;102300.34;1670211;84;21058;-63
2021/11/16 11:01:49;;;;;;;11.47;10.20;;;;;;;2.45;55.88;102298.34;1683949;84;21553;-64
2021/11/16 11:04:19;;;;;;;20.35;10.85;;;;;;;2.46;55.65;102300.90;1700814;83;21034;-60
2021/11/16 11:06:49;;;;;;;14.00;10.17;;;;;;;2.43;55.78;102295.83;1699372;83;21042;-63
2021/11/16 11:09:16;;;;;;;10.77;9.67;;;;;;;2.47;55.81;102293.88;1695983;83;21491;-63
2021/11/16 11:11:48;;;;;;;12.90;10.60;;;;;;;2.47;55.82;102288.13;1698545;83;21287;-62
2021/11/16 11:14:35;;;;;;;10.73;9.13;;;;;;;2.55;55.70;102290.32;1700575;84;21095;-62
2021/11/16 11:17:07;;;;;;;10.30;8.50;;;;;;;2.59;55.13;102291.84;1701225;83;21074;-63
2021/11/16 11:19:40;;;;;;;16.33;10.90;;;;;;;2.56;55.16;102295.95;1705025;83;21083;-62
2021/11/16 11:22:22;;;;;;;10.53;9.43;;;;;;;2.49;55.13;102287.57;1704601;83;21522;-64
2021/11/16 11:25:01;;;;;;;10.70;9.33;;;;;;;2.45;55.32;102289.13;1702349;83;21051;-62
2021/11/16 11:27:30;;;;;;;10.43;9.37;;;;;;;2.43;55.45;102278.72;1692044;84;21022;-62
2021/11/16 11:30:01;;;;;;;12.33;11.03;;;;;;;2.42;55.55;102275.69;1684592;84;21083;-62
2021/11/16 11:32:38;;;;;;;10.93;9.10;;;;;;;2.46;55.72;102279.84;1695186;83;21058;-60
2021/11/16 11:35:15;;;;;;;22.60;11.90;;;;;;;2.51;55.56;102276.48;1711689;81;21025;-61
2021/11/16 11:37:49;;;;;;;11.53;10.30;;;;;;;2.57;55.43;102270.49;1697016;83;21062;-60
2021/11/16 11:40:37;;;;;;;12.50;9.90;;;;;;;2.59;55.43;102265.98;1700671;83;21031;-62
2021/11/16 11:43:08;;;;;;;18.37;10.43;;;;;;;2.51;55.07;102246.21;1699470;82;21046;-62
2021/11/16 11:45:39;;;;;;;14.73;10.90;;;;;;;2.63;55.05;102267.02;1675531;84;21040;-61
2021/11/16 11:48:14;;;;;;;21.27;10.77;;;;;;;2.64;55.05;102261.31;1668632;84;21106;-61
2021/11/16 11:51:00;;;;;;;11.53;10.43;;;;;;;2.71;55.05;102257.35;1656845;84;21027;-61
2021/11/16 11:53:31;;;;;;;10.20;8.83;;;;;;;2.74;55.01;102259.81;1665897;84;21202;-62
2021/11/16 11:56:02;;;;;;;11.93;10.73;;;;;;;2.81;54.92;102257.20;1662073;83;21004;-62
2021/11/16 11:58:37;;;;;;;13.97;10.13;;;;;;;2.83;54.51;102246.11;1667885;84;21035;-60
2021/11/16 12:01:08;;;;;;;13.77;10.13;;;;;;;2.81;54.66;102242.72;1660923;84;21056;-61
2021/11/16 12:03:40;;;;;;;11.20;10.00;;;;;;;2.85;54.76;102240.76;1663781;84;21048;-61
2021/11/16 12:06:07;;;;;;;14.23;10.00;;;;;;;2.89;54.69;102244.42;1669747;84;21039;-62